Time;durP1;ratioP1;P1;durP2;ratioP2;P2;SDS_P1;SDS_P2;PMS_P1;PMS_P2;Temp;Humidity;BMP_temperature;BMP_pressure;BME280_temperature;BME280_humidity;BME280_pressure;Samples;Min_cycle;Max_cycle;Signal;HPM_P1;HPM_P2
2023/05/04 00:01:00;;;;;;;155.43;143.00;;;8.00;32.40;;;;;;4973586;28;20261;-71
2023/05/04 00:03:26;;;;;;;240.43;225.00;;;8.00;33.90;;;;;;4973044;28;20187;-71
2023/05/04 00:05:51;;;;;;;211.00;195.60;;;8.00;33.50;;;;;;4973164;28;20341;-71
2023/05/04 00:08:17;;;;;;;208.27;193.80;;;7.90;36.10;;;;;;4972371;28;20174;-71
2023/05/04 00:10:42;;;;;;;222.90;208.37;;;7.90;36.90;;;;;;4973199;28;20186;-70
2023/05/04 00:13:08;;;;;;;290.27;273.33;;;7.80;36.20;;;;;;4972945;28;20187;-69
2023/05/04 00:15:33;;;;;;;215.40;200.73;;;7.80;37.00;;;;;;4973006;28;20207;-71
2023/05/04 00:17:59;;;;;;;277.43;261.10;;;7.80;37.10;;;;;;4973278;28;20652;-71
2023/05/04 00:20:25;;;;;;;248.70;233.23;;;7.80;37.20;;;;;;4973074;28;20186;-71
2023/05/04 00:22:50;;;;;;;313.93;293.77;;;7.70;37.40;;;;;;4972756;28;20169;-71
2023/05/04 00:25:16;;;;;;;202.23;187.73;;;7.70;39.00;;;;;;4972901;28;20550;-70
2023/05/04 00:27:41;;;;;;;198.30;183.53;;;7.70;40.40;;;;;;4973026;28;20201;-70
2023/05/04 00:30:07;;;;;;;394.17;369.97;;;7.70;39.80;;;;;;4973040;28;20181;-70
2023/05/04 00:32:34;;;;;;;285.83;268.70;;;7.70;38.50;;;;;;4972770;28;20267;-70
2023/05/04 00:34:59;;;;;;;239.07;224.30;;;7.70;40.30;;;;;;4973034;28;20671;-70
2023/05/04 00:37:25;;;;;;;247.57;231.87;;;7.60;40.30;;;;;;4976855;28;20442;-71
2023/05/04 00:39:50;;;;;;;182.47;168.63;;;7.60;40.30;;;;;;4977180;28;20517;-71
2023/05/04 00:42:17;;;;;;;262.73;247.33;;;7.60;40.30;;;;;;4976508;28;20172;-71
2023/05/04 00:44:43;;;;;;;200.93;186.67;;;7.60;40.30;;;;;;4976917;28;20197;-71
2023/05/04 00:47:09;;;;;;;183.93;170.27;;;7.60;41.20;;;;;;4976630;28;20437;-71
2023/05/04 00:49:35;;;;;;;219.23;204.00;;;7.60;40.30;;;;;;4976709;28;20452;-71
2023/05/04 00:52:02;;;;;;;115.63;103.33;;;7.50;40.60;;;;;;4976275;28;20636;-69
2023/05/04 00:54:28;;;;;;;348.73;328.03;;;7.50;41.60;;;;;;4976494;28;20292;-70
2023/05/04 00:56:55;;;;;;;209.47;194.87;;;7.50;40.40;;;;;;4976431;28;20437;-70
2023/05/04 00:59:21;;;;;;;268.90;252.30;;;7.50;42.30;;;;;;4976759;28;20425;-70
2023/05/04 01:01:46;;;;;;;193.00;178.57;;;7.50;42.50;;;;;;4976815;28;20416;-70
2023/05/04 01:04:12;;;;;;;330.50;309.47;;;7.50;42.50;;;;;;4976953;28;20228;-70
2023/05/04 01:06:53;;;;;;;164.17;151.00;;;7.50;41.70;;;;;;4976306;28;20763;-69
2023/05/04 01:09:34;;;;;;;344.30;322.63;;;7.40;44.30;;;;;;4976355;28;20790;-70
2023/05/04 01:12:07;;;;;;;92.47;73.57;;;7.40;43.80;;;;;;4976068;28;20980;-70
2023/05/04 01:14:34;;;;;;;117.43;105.57;;;7.40;45.60;;;;;;4976155;28;20459;-70
2023/05/04 01:17:03;;;;;;;117.93;106.27;;;7.40;45.20;;;;;;4976043;28;20440;-69
2023/05/04 01:19:29;;;;;;;265.73;249.63;;;7.50;44.30;;;;;;4976310;28;20442;-70
2023/05/04 01:21:55;;;;;;;154.90;142.07;;;7.50;42.10;;;;;;4975879;28;20930;-70
2023/05/04 01:24:22;;;;;;;247.60;232.03;;;7.50;43.40;;;;;;4976187;28;20185;-70
2023/05/04 01:26:56;;;;;;;99.67;89.20;;;7.40;42.50;;;;;;4975400;28;20458;-70
2023/05/04 01:29:42;;;;;;;182.53;168.57;;;7.50;43.10;;;;;;4975929;28;20511;-70
2023/05/04 01:32:08;;;;;;;200.97;186.73;;;7.50;42.40;;;;;;4975762;28;20413;-70
2023/05/04 01:34:35;;;;;;;248.37;232.63;;;7.50;43.20;;;;;;4975783;28;20571;-70
2023/05/04 01:37:01;;;;;;;286.53;269.73;;;7.40;42.40;;;;;;4975802;28;20561;-69
2023/05/04 01:39:28;;;;;;;89.93;70.40;;;7.40;42.00;;;;;;4975799;28;20405;-69
2023/05/04 01:41:54;;;;;;;178.37;164.03;;;7.40;43.40;;;;;;4975415;28;20192;-69
2023/05/04 01:44:20;;;;;;;125.90;113.90;;;7.30;43.70;;;;;;4975689;28;20413;-69
2023/05/04 01:46:45;;;;;;;243.97;228.13;;;7.30;44.60;;;;;;4975236;28;20296;-69
2023/05/04 01:49:11;;;;;;;195.97;181.63;;;7.30;44.50;;;;;;4976174;28;20477;-70
2023/05/04 01:51:36;;;;;;;296.30;279.33;;;7.30;45.20;;;;;;4975303;28;20621;-70
2023/05/04 01:54:02;;;;;;;344.20;325.10;;;7.30;43.60;;;;;;4975588;28;20263;-70
2023/05/04 01:56:27;;;;;;;240.97;224.93;;;7.20;45.00;;;;;;4975508;28;20202;-69
2023/05/04 01:58:53;;;;;;;199.10;184.77;;;7.20;45.80;;;;;;4975445;28;20189;-69
2023/05/04 02:01:18;;;;;;;369.00;345.83;;;7.20;45.40;;;;;;4975375;28;20214;-70
2023/05/04 02:03:44;;;;;;;171.43;157.77;;;7.20;45.00;;;;;;4975135;28;20184;-70
2023/05/04 02:06:09;;;;;;;245.53;228.73;;;7.10;47.70;;;;;;4975190;28;20209;-70
2023/05/04 02:08:35;;;;;;;99.70;84.20;;;7.10;46.80;;;;;;4975290;28;20180;-69
2023/05/04 02:11:01;;;;;;;315.63;297.97;;;7.10;49.00;;;;;;4975198;28;20213;-70
2023/05/04 02:13:26;;;;;;;263.70;245.90;;;7.10;45.90;;;;;;4974864;28;20173;-70
2023/05/04 02:15:52;;;;;;;223.47;208.30;;;7.10;46.60;;;;;;4975274;28;20693;-69
2023/05/04 02:18:17;;;;;;;279.10;261.27;;;7.10;47.90;;;;;;4975138;28;20200;-70
2023/05/04 02:20:43;;;;;;;103.67;92.00;;;7.10;46.50;;;;;;4975049;28;20173;-70
2023/05/04 02:23:08;;;;;;;300.33;282.30;;;7.00;49.30;;;;;;4974854;28;20169;-69
2023/05/04 02:25:34;;;;;;;284.87;267.50;;;7.00;48.30;;;;;;4974885;28;20393;-70
2023/05/04 02:27:59;;;;;;;115.37;103.70;;;7.00;49.20;;;;;;4975005;28;20248;-69
2023/05/04 02:30:25;;;;;;;291.47;272.63;;;7.10;49.30;;;;;;4974949;28;20185;-69
2023/05/04 02:32:51;;;;;;;154.87;141.80;;;7.10;47.70;;;;;;4974625;28;20260;-69
2023/05/04 02:35:16;;;;;;;267.43;250.70;;;7.10;48.90;;;;;;4975027;28;20240;-69
2023/05/04 02:37:42;;;;;;;408.20;383.80;;;7.10;47.90;;;;;;4974806;28;20276;-69
2023/05/04 02:40:08;;;;;;;284.30;267.40;;;7.10;46.40;;;;;;4974706;28;20181;-70
2023/05/04 02:42:33;;;;;;;182.67;168.23;;;7.10;47.90;;;;;;4974380;28;20181;-71
2023/05/04 02:44:59;;;;;;;300.27;280.10;;;7.00;49.80;;;;;;4974594;28;20937;-70
2023/05/04 02:47:24;;;;;;;209.77;193.00;;;6.90;49.70;;;;;;4974570;28;20198;-70
2023/05/04 02:49:50;;;;;;;253.50;237.13;;;7.00;49.90;;;;;;4974569;28;20177;-70
2023/05/04 02:52:16;;;;;;;262.27;245.43;;;7.00;49.00;;;;;;4974525;28;20189;-69
2023/05/04 02:54:41;;;;;;;386.87;359.90;;;7.00;48.50;;;;;;4974810;28;20279;-70
2023/05/04 02:57:07;;;;;;;179.00;165.30;;;7.00;48.00;;;;;;4974837;28;20193;-69
2023/05/04 02:59:32;;;;;;;467.77;436.17;;;7.00;49.10;;;;;;4973709;28;20182;-69
2023/05/04 03:01:58;;;;;;;174.83;160.73;;;7.10;49.90;;;;;;4974012;28;20178;-70
2023/05/04 03:04:23;;;;;;;174.53;160.50;;;7.10;49.90;;;;;;4974217;28;20181;-70
2023/05/04 03:06:49;;;;;;;187.00;172.53;;;7.10;49.90;;;;;;4974154;28;20710;-69
2023/05/04 03:09:14;;;;;;;218.27;202.87;;;7.20;50.00;;;;;;4974171;28;20180;-69
2023/05/04 03:11:40;;;;;;;238.87;222.87;;;7.30;48.20;;;;;;4973892;28;20179;-70
2023/05/04 03:14:06;;;;;;;232.53;215.13;;;7.30;48.40;;;;;;4973995;28;20211;-70
2023/05/04 03:16:31;;;;;;;127.13;114.53;;;7.30;49.40;;;;;;4974017;28;20222;-70
2023/05/04 03:18:57;;;;;;;267.60;250.87;;;7.30;49.70;;;;;;4973950;28;20173;-70
2023/05/04 03:21:23;;;;;;;273.27;256.43;;;7.30;48.40;;;;;;4974132;28;20174;-71
2023/05/04 03:23:48;;;;;;;254.43;237.77;;;7.30;47.20;;;;;;4973775;28;20724;-71
2023/05/04 03:26:14;;;;;;;198.70;184.10;;;7.20;47.90;;;;;;4973716;28;20278;-70
2023/05/04 03:28:39;;;;;;;256.90;240.40;;;7.20;47.50;;;;;;4973863;28;20584;-70
2023/05/04 03:31:05;;;;;;;239.07;222.43;;;7.20;46.20;;;;;;4973762;28;20207;-69
2023/05/04 03:33:30;;;;;;;171.00;156.80;;;7.20;47.50;;;;;;4973396;28;20192;-71
2023/05/04 03:35:56;;;;;;;94.87;66.67;;;7.20;47.00;;;;;;4987761;28;20209;-71
2023/05/04 03:38:21;;;;;;;169.20;155.20;;;7.20;46.30;;;;;;4993132;28;20227;-71
2023/05/04 03:40:47;;;;;;;238.43;222.13;;;7.20;45.00;;;;;;4993231;28;20180;-71
2023/05/04 03:43:12;;;;;;;357.73;337.07;;;7.10;45.30;;;;;;4992673;28;20184;-71
2023/05/04 03:45:38;;;;;;;208.07;192.50;;;7.00;46.90;;;;;;4993096;28;20197;-71
2023/05/04 03:48:04;;;;;;;265.30;248.60;;;7.00;47.90;;;;;;4992902;28;20185;-71
2023/05/04 03:50:30;;;;;;;309.40;291.43;;;7.00;47.00;;;;;;4993015;28;20177;-71
2023/05/04 03:52:56;;;;;;;186.93;172.57;;;6.90;48.30;;;;;;4992786;28;20423;-71
2023/05/04 03:55:21;;;;;;;311.33;290.27;;;6.90;47.00;;;;;;4992540;28;20455;-71
2023/05/04 03:57:47;;;;;;;126.10;113.43;;;6.90;47.00;;;;;;4992865;28;20267;-71
2023/05/04 04:00:14;;;;;;;299.07;278.60;;;6.90;47.70;;;;;;4992751;28;20525;-71
2023/05/04 04:02:39;;;;;;;151.57;138.00;;;6.90;47.40;;;;;;4992429;28;20171;-71
2023/05/04 04:05:06;;;;;;;214.20;198.57;;;6.90;48.90;;;;;;4992651;28;20415;-71
2023/05/04 04:07:32;;;;;;;219.83;204.13;;;6.90;48.40;;;;;;4992624;28;20201;-71
2023/05/04 04:09:57;;;;;;;246.10;229.47;;;6.90;48.20;;;;;;4992395;28;20446;-72
2023/05/04 04:12:23;;;;;;;264.03;247.47;;;6.90;47.60;;;;;;4992612;28;20412;-71
2023/05/04 04:14:50;;;;;;;93.33;67.67;;;6.80;48.20;;;;;;4992644;28;20202;-71
2023/05/04 04:17:16;;;;;;;269.03;252.40;;;6.80;49.30;;;;;;4992603;28;20204;-71
2023/05/04 04:19:41;;;;;;;175.47;161.13;;;6.80;48.20;;;;;;4992515;28;20423;-71
2023/05/04 04:22:07;;;;;;;185.03;170.63;;;6.80;49.10;;;;;;4992230;28;20180;-71
2023/05/04 04:24:33;;;;;;;190.77;175.27;;;6.90;49.00;;;;;;4992447;28;20686;-71
2023/05/04 04:26:58;;;;;;;287.63;269.90;;;6.90;49.60;;;;;;4991669;28;20587;-70
2023/05/04 04:29:24;;;;;;;292.97;274.63;;;6.90;48.40;;;;;;4992467;28;20187;-70
2023/05/04 04:31:50;;;;;;;305.50;286.53;;;6.90;48.50;;;;;;4992288;28;20412;-70
2023/05/04 04:34:16;;;;;;;308.97;290.50;;;6.90;49.70;;;;;;4992767;28;20732;-70
2023/05/04 04:36:42;;;;;;;190.60;175.80;;;6.90;49.70;;;;;;4992409;28;20195;-70
2023/05/04 04:39:08;;;;;;;273.73;256.53;;;7.00;49.90;;;;;;4992312;28;20478;-70
2023/05/04 04:41:33;;;;;;;202.07;186.70;;;7.10;49.70;;;;;;4992332;28;20409;-70
2023/05/04 04:43:59;;;;;;;330.63;310.50;;;7.10;50.40;;;;;;4992718;28;20592;-71
2023/05/04 04:46:24;;;;;;;105.87;82.07;;;7.10;49.60;;;;;;4992538;28;20202;-70
2023/05/04 04:48:52;;;;;;;108.50;80.93;;;7.20;50.00;;;;;;4992271;28;20249;-71
2023/05/04 04:51:17;;;;;;;313.63;295.23;;;7.30;48.00;;;;;;4992363;28;20188;-71
2023/05/04 04:53:43;;;;;;;217.10;201.47;;;7.30;47.30;;;;;;4991965;28;20758;-71
2023/05/04 04:56:09;;;;;;;213.40;197.47;;;7.40;47.50;;;;;;4992335;28;20280;-70
2023/05/04 04:58:35;;;;;;;178.97;164.27;;;7.40;47.70;;;;;;4992401;28;20178;-71
2023/05/04 05:01:03;;;;;;;299.90;282.20;;;7.50;46.30;;;;;;4992095;28;20473;-70
2023/05/04 05:03:30;;;;;;;265.87;248.07;;;7.60;45.40;;;;;;4990750;28;20218;-70
2023/05/04 05:05:55;;;;;;;197.03;181.77;;;7.60;44.20;;;;;;4992236;28;20436;-70
2023/05/04 05:08:21;;;;;;;280.43;262.80;;;7.70;45.10;;;;;;4992090;28;20412;-70
2023/05/04 05:10:47;;;;;;;230.17;214.23;;;7.70;43.70;;;;;;4992302;28;20604;-70
2023/05/04 05:13:12;;;;;;;270.53;253.33;;;7.70;44.50;;;;;;4990597;28;20499;-70
2023/05/04 05:15:38;;;;;;;277.20;259.47;;;7.80;45.50;;;;;;4991971;28;20219;-70
2023/05/04 05:18:04;;;;;;;186.87;172.37;;;8.00;45.30;;;;;;4992023;28;20189;-70
2023/05/04 05:20:29;;;;;;;282.70;265.60;;;8.20;44.50;;;;;;4991906;28;20220;-71
2023/05/04 05:22:55;;;;;;;120.07;108.37;;;8.40;43.00;;;;;;4994672;28;20194;-71
2023/05/04 05:25:20;;;;;;;318.97;300.33;;;8.60;41.10;;;;;;4995425;28;20723;-70
2023/05/04 05:27:46;;;;;;;136.53;123.57;;;8.80;39.00;;;;;;4995608;28;20178;-69
2023/05/04 05:30:12;;;;;;;283.40;265.40;;;9.30;37.20;;;;;;4995415;28;20656;-69
2023/05/04 05:32:38;;;;;;;250.83;233.90;;;10.40;53.20;;;;;;4995187;28;20180;-72
2023/05/04 05:35:04;;;;;;;359.50;338.03;;;12.00;43.10;;;;;;4995176;28;20455;-74
2023/05/04 05:37:31;;;;;;;378.60;355.77;;;13.80;31.50;;;;;;4993942;28;20252;-72
2023/05/04 05:39:57;;;;;;;246.90;231.40;;;15.60;11.70;;;;;;4995333;28;20415;-72
2023/05/04 05:42:22;;;;;;;655.47;595.43;;;16.80;7.30;;;;;;4995401;28;20409;-72
2023/05/04 05:44:48;;;;;;;576.20;522.07;;;17.40;4.70;;;;;;4993696;28;20203;-72
2023/05/04 05:47:13;;;;;;;628.87;570.17;;;19.20;1.00;;;;;;4994538;28;20682;-73
2023/05/04 05:49:40;;;;;;;868.00;786.37;;;21.10;1.00;;;;;;4995098;28;20184;-73
2023/05/04 05:52:05;;;;;;;716.93;653.53;;;22.90;1.00;;;;;;4994626;28;20173;-73
2023/05/04 05:54:31;;;;;;;650.20;601.87;;;24.00;1.00;;;;;;4994269;28;20563;-73
2023/05/04 05:56:57;;;;;;;702.67;644.70;;;24.70;1.00;;;;;;4994761;28;20200;-73
2023/05/04 05:59:22;;;;;;;680.17;624.50;;;25.50;1.00;;;;;;4994469;28;20436;-73
2023/05/04 06:01:48;;;;;;;634.07;585.43;;;25.60;1.00;;;;;;4994239;28;20246;-73
2023/05/04 06:04:14;;;;;;;737.17;669.73;;;26.20;1.00;;;;;;4994420;28;20215;-73
2023/05/04 06:06:39;;;;;;;771.17;703.33;;;26.80;1.00;;;;;;4994531;28;20185;-73
2023/05/04 06:09:05;;;;;;;781.17;711.07;;;26.90;1.00;;;;;;4994464;28;20258;-73
2023/05/04 06:11:30;;;;;;;758.10;693.23;;;26.30;1.00;;;;;;4994365;28;20223;-73
2023/05/04 06:13:56;;;;;;;672.00;619.57;;;26.50;1.00;;;;;;4994077;28;20748;-73
2023/05/04 06:16:22;;;;;;;630.73;586.73;;;27.00;1.00;;;;;;4994287;28;20650;-73
2023/05/04 06:18:47;;;;;;;633.23;588.40;;;27.70;1.00;;;;;;4994471;28;20173;-73
2023/05/04 06:21:13;;;;;;;798.37;727.80;;;27.80;1.00;;;;;;4994212;28;20181;-72
2023/05/04 06:23:39;;;;;;;753.20;686.57;;;27.00;1.00;;;;;;4993862;28;20188;-71
2023/05/04 06:26:06;;;;;;;759.73;694.43;;;26.30;1.00;;;;;;4994004;28;20204;-71
2023/05/04 06:28:32;;;;;;;816.23;742.90;;;27.30;1.00;;;;;;4994004;28;20519;-71
2023/05/04 06:30:58;;;;;;;819.63;749.53;;;28.20;1.00;;;;;;4994214;28;20485;-71
2023/05/04 06:33:23;;;;;;;742.33;683.50;;;28.00;1.00;;;;;;4993668;28;20522;-71
2023/05/04 06:35:50;;;;;;;769.97;704.87;;;27.50;1.00;;;;;;4994367;28;20295;-71
2023/05/04 06:38:16;;;;;;;772.87;702.47;;;27.10;1.00;;;;;;4994170;28;20179;-71
2023/05/04 06:40:41;;;;;;;756.33;694.10;;;27.70;1.00;;;;;;4994096;28;20416;-75
2023/05/04 06:43:07;;;;;;;729.07;673.23;;;27.90;1.00;;;;;;4993313;28;20177;-71
2023/05/04 06:45:34;;;;;;;776.53;715.63;;;27.30;1.00;;;;;;4993876;28;20200;-71
2023/05/04 06:47:59;;;;;;;857.70;784.33;;;28.50;1.00;;;;;;4993652;28;20200;-71
2023/05/04 06:50:25;;;;;;;850.23;776.33;;;29.40;1.00;;;;;;4993796;28;20442;-73
2023/05/04 06:52:51;;;;;;;833.47;760.57;;;30.30;1.00;;;;;;4989936;28;20188;-70
2023/05/04 06:55:17;;;;;;;740.90;685.60;;;30.80;1.00;;;;;;4989402;28;20467;-70
2023/05/04 06:57:43;;;;;;;789.33;725.23;;;28.50;1.00;;;;;;4990295;28;20185;-70
2023/05/04 07:00:09;;;;;;;777.80;714.33;;;29.00;1.00;;;;;;4989378;28;20959;-69
2023/05/04 07:02:34;;;;;;;735.33;676.93;;;30.00;1.00;;;;;;4989350;28;20260;-70
2023/05/04 07:05:01;;;;;;;773.13;713.03;;;29.70;1.00;;;;;;4989748;28;20523;-70
2023/05/04 07:07:27;;;;;;;814.77;746.97;;;29.50;1.00;;;;;;4989316;28;20271;-70
2023/05/04 07:09:52;;;;;;;776.43;714.07;;;30.40;1.00;;;;;;4989311;28;21001;-69
2023/05/04 07:12:18;;;;;;;790.57;725.60;;;30.80;1.00;;;;;;4989344;28;20221;-71
2023/05/04 07:14:43;;;;;;;805.10;739.10;;;29.90;1.00;;;;;;4989086;28;20270;-72
2023/05/04 07:17:09;;;;;;;711.77;660.47;;;29.40;1.00;;;;;;4990523;28;20199;-69
2023/05/04 07:19:35;;;;;;;764.47;706.03;;;29.40;1.00;;;;;;4991582;28;20177;-69
2023/05/04 07:22:01;;;;;;;744.80;686.10;;;29.30;1.00;;;;;;4993280;28;20180;-70
2023/05/04 07:24:30;;;;;;;796.97;730.90;;;29.80;1.00;;;;;;4993134;28;20407;-70
2023/05/04 07:26:55;;;;;;;829.23;755.83;;;31.10;1.00;;;;;;4992923;28;20212;-70
2023/05/04 07:29:21;;;;;;;863.10;792.83;;;31.30;1.00;;;;;;4992902;28;20412;-70
2023/05/04 07:31:47;;;;;;;777.73;718.23;;;31.70;1.00;;;;;;4992885;28;20180;-70
2023/05/04 07:34:12;;;;;;;779.37;716.70;;;31.80;1.00;;;;;;4990062;28;20208;-69
2023/05/04 07:36:38;;;;;;;791.60;733.73;;;31.60;1.00;;;;;;4988561;28;20243;-69
2023/05/04 07:39:03;;;;;;;775.03;714.20;;;30.50;1.00;;;;;;4988890;28;20583;-70
2023/05/04 07:41:29;;;;;;;741.60;685.47;;;29.60;1.00;;;;;;4989574;28;20187;-70
2023/05/04 07:43:54;;;;;;;748.00;689.13;;;28.20;1.00;;;;;;4988307;28;20181;-69
2023/05/04 07:46:20;;;;;;;796.70;729.97;;;27.70;1.00;;;;;;4991457;28;20208;-76
2023/05/04 07:48:45;;;;;;;730.77;675.30;;;25.30;1.00;;;;;;4991599;28;20187;-73
2023/05/04 07:51:13;;;;;;;722.73;668.03;;;26.50;1.00;;;;;;4992759;28;20183;-74
2023/05/04 07:53:38;;;;;;;672.37;620.97;;;26.40;1.00;;;;;;4992422;28;20539;-73
2023/05/04 07:56:11;;;;;;;624.90;583.13;;;25.30;1.00;;;;;;4992661;28;20435;-74
2023/05/04 07:58:37;;;;;;;690.67;645.07;;;25.00;1.00;;;;;;4992820;28;20169;-74
2023/05/04 08:01:03;;;;;;;718.17;663.40;;;25.80;1.00;;;;;;4992580;28;20755;-74
2023/05/04 08:03:29;;;;;;;718.40;664.10;;;26.50;1.00;;;;;;4992516;28;20176;-74
2023/05/04 08:05:55;;;;;;;681.97;632.43;;;29.30;1.00;;;;;;4992620;28;20196;-74
2023/05/04 08:08:21;;;;;;;711.77;655.63;;;30.70;1.00;;;;;;4992698;28;20928;-74
2023/05/04 08:10:46;;;;;;;683.63;635.70;;;30.30;1.00;;;;;;4992458;28;20263;-74
2023/05/04 08:13:12;;;;;;;746.53;691.73;;;31.70;1.00;;;;;;4992349;28;20183;-74
2023/05/04 08:15:37;;;;;;;881.60;800.67;;;31.70;1.00;;;;;;4992339;28;20214;-74
2023/05/04 08:18:03;;;;;;;782.00;714.37;;;31.50;1.00;;;;;;4992504;28;20173;-74
2023/05/04 08:20:28;;;;;;;785.47;724.17;;;30.40;1.00;;;;;;4992386;28;20252;-74
2023/05/04 08:22:54;;;;;;;777.03;714.27;;;30.00;1.00;;;;;;4992542;28;20668;-75
2023/05/04 08:25:21;;;;;;;784.00;724.77;;;29.00;1.00;;;;;;4992534;28;20180;-77
2023/05/04 08:27:47;;;;;;;752.73;695.67;;;29.70;1.00;;;;;;4992877;28;20199;-74
2023/05/04 08:30:13;;;;;;;663.73;615.20;;;30.50;1.00;;;;;;4992390;28;20447;-74
2023/05/04 08:32:39;;;;;;;728.87;673.13;;;31.40;1.00;;;;;;4992075;28;20638;-74
2023/05/04 08:35:05;;;;;;;613.87;562.27;;;32.50;1.00;;;;;;4992236;28;20546;-74
2023/05/04 08:37:31;;;;;;;825.93;758.73;;;32.80;1.00;;;;;;4992313;28;20192;-74
2023/05/04 08:39:56;;;;;;;822.80;756.50;;;32.20;1.00;;;;;;4992240;28;21032;-74
2023/05/04 08:42:32;;;;;;;767.13;709.47;;;31.80;1.00;;;;;;4992000;28;20200;-74
2023/05/04 08:44:58;;;;;;;704.70;642.80;;;31.60;1.00;;;;;;4992249;28;20173;-74
2023/05/04 08:47:30;;;;;;;791.80;724.90;;;31.50;1.00;;;;;;4992158;28;20481;-74
2023/05/04 08:49:56;;;;;;;782.93;719.03;;;30.80;1.00;;;;;;4992390;28;20411;-74
2023/05/04 08:52:25;;;;;;;739.17;679.57;;;29.60;1.00;;;;;;4992044;28;20415;-74
2023/05/04 08:54:56;;;;;;;803.60;740.63;;;28.70;1.00;;;;;;4992027;28;20666;-74
2023/05/04 08:57:23;;;;;;;642.60;586.63;;;27.80;1.00;;;;;;4994283;28;20439;-73
2023/05/04 08:59:52;;;;;;;738.13;685.87;;;26.90;1.00;;;;;;4995809;28;20451;-72
2023/05/04 09:02:22;;;;;;;750.27;694.13;;;25.50;1.00;;;;;;4995528;28;20792;-73
2023/05/04 09:04:52;;;;;;;720.37;671.40;;;24.00;1.00;;;;;;4996393;28;20426;-73
2023/05/04 09:07:19;;;;;;;683.43;635.20;;;23.00;1.00;;;;;;4995891;28;21035;-73
2023/05/04 09:09:46;;;;;;;821.30;755.33;;;22.20;1.00;;;;;;4995779;28;20792;-72
2023/05/04 09:12:12;;;;;;;670.33;626.83;;;21.60;1.00;;;;;;4995426;28;20423;-72
2023/05/04 09:14:37;;;;;;;768.00;709.13;;;21.10;1.00;;;;;;4995646;28;20466;-72
2023/05/04 09:17:24;;;;;;;657.57;614.87;;;20.80;1.00;;;;;;4995515;28;20431;-73
2023/05/04 09:19:57;;;;;;;708.47;661.97;;;20.70;1.00;;;;;;4995765;28;20343;-72
2023/05/04 09:22:23;;;;;;;602.07;566.10;;;20.60;1.00;;;;;;4995239;28;20419;-73
2023/05/04 09:24:49;;;;;;;647.50;608.60;;;20.60;1.00;;;;;;4995348;28;20419;-73
2023/05/04 09:27:16;;;;;;;586.63;552.57;;;20.60;1.00;;;;;;4995422;28;20243;-73
2023/05/04 09:29:42;;;;;;;678.93;633.83;;;20.80;1.00;;;;;;4995500;28;20490;-72
2023/05/04 09:32:13;;;;;;;638.33;598.83;;;20.80;1.00;;;;;;4995258;28;20412;-73
2023/05/04 09:34:49;;;;;;;679.23;635.17;;;20.80;1.00;;;;;;4995239;28;20207;-73
2023/05/04 09:37:15;;;;;;;620.17;582.27;;;20.80;1.00;;;;;;4995223;28;20450;-73
2023/05/04 09:39:54;;;;;;;616.77;580.57;;;20.90;1.00;;;;;;4995145;28;20498;-72
2023/05/04 09:42:20;;;;;;;522.10;492.33;;;21.00;1.00;;;;;;4995023;28;20260;-73
2023/05/04 09:44:58;;;;;;;787.77;722.20;;;20.90;1.00;;;;;;4995410;28;20411;-72
2023/05/04 09:47:37;;;;;;;749.43;692.87;;;21.00;1.00;;;;;;4994984;28;20427;-72
2023/05/04 09:50:14;;;;;;;604.30;570.20;;;21.00;1.00;;;;;;4995062;28;20411;-72
2023/05/04 09:52:42;;;;;;;559.60;527.17;;;21.10;1.00;;;;;;4994794;28;20475;-73
2023/05/04 09:55:11;;;;;;;615.50;579.27;;;21.20;1.00;;;;;;4994801;28;20838;-73
2023/05/04 09:57:39;;;;;;;698.40;647.80;;;21.20;1.00;;;;;;4994953;28;20418;-73
2023/05/04 10:00:05;;;;;;;594.00;558.13;;;21.10;1.00;;;;;;4994786;28;20423;-73
2023/05/04 10:02:31;;;;;;;669.27;625.93;;;21.10;1.00;;;;;;4994500;28;20914;-73
2023/05/04 10:04:58;;;;;;;614.43;578.40;;;21.20;1.00;;;;;;4994833;28;20416;-73
2023/05/04 10:07:28;;;;;;;552.13;520.47;;;21.30;1.00;;;;;;4994160;28;20439;-73
2023/05/04 10:09:55;;;;;;;614.90;578.07;;;21.50;1.00;;;;;;4994414;28;20428;-73
2023/05/04 10:12:21;;;;;;;649.53;607.00;;;21.60;1.00;;;;;;4994261;28;20426;-74
2023/05/04 10:14:46;;;;;;;712.60;661.40;;;21.80;1.00;;;;;;4994679;28;20828;-73
2023/05/04 10:17:36;;;;;;;666.23;623.83;;;21.80;1.00;;;;;;4994693;28;20567;-73
2023/05/04 10:20:26;;;;;;;656.47;615.80;;;21.70;1.00;;;;;;4994700;28;20187;-74
2023/05/04 10:22:52;;;;;;;768.60;709.53;;;21.80;1.00;;;;;;4994340;28;20408;-73
2023/05/04 10:25:29;;;;;;;672.67;629.70;;;21.90;1.00;;;;;;4994387;28;20562;-73
2023/05/04 10:28:06;;;;;;;676.97;632.37;;;21.90;1.00;;;;;;4995216;28;20497;-73
2023/05/04 10:30:32;;;;;;;636.13;597.23;;;21.90;1.00;;;;;;4994476;28;20415;-73
2023/05/04 10:32:59;;;;;;;541.63;499.47;;;22.00;1.00;;;;;;4994054;28;20427;-73
2023/05/04 10:35:26;;;;;;;675.40;632.57;;;22.00;1.00;;;;;;4994249;28;20201;-74
2023/05/04 10:37:53;;;;;;;646.53;604.60;;;22.00;1.00;;;;;;4994222;28;20774;-73
2023/05/04 10:40:35;;;;;;;644.33;603.60;;;22.00;1.00;;;;;;4994291;28;20423;-73
2023/05/04 10:43:01;;;;;;;657.43;614.97;;;22.10;1.00;;;;;;4994003;28;20478;-73
2023/05/04 10:45:40;;;;;;;632.30;592.30;;;22.00;1.00;;;;;;4994055;28;20411;-73
2023/05/04 10:48:07;;;;;;;657.20;617.17;;;22.10;1.00;;;;;;4993911;28;20204;-73
2023/05/04 10:50:45;;;;;;;607.07;571.57;;;22.20;1.00;;;;;;4994340;28;20883;-73
2023/05/04 10:53:11;;;;;;;752.60;697.97;;;22.40;1.00;;;;;;4993702;28;20843;-74
2023/05/04 10:55:45;;;;;;;747.67;694.03;;;22.40;1.00;;;;;;4993781;28;20874;-73
2023/05/04 10:58:19;;;;;;;648.70;605.00;;;22.40;1.00;;;;;;4993811;28;20415;-73
2023/05/04 11:00:46;;;;;;;699.10;652.73;;;22.50;1.00;;;;;;4993955;28;20415;-73
2023/05/04 11:03:12;;;;;;;665.90;623.97;;;22.50;1.00;;;;;;4993815;28;20408;-73
2023/05/04 11:05:45;;;;;;;669.37;625.27;;;22.70;1.00;;;;;;4993869;28;20443;-73
2023/05/04 11:08:29;;;;;;;683.73;639.57;;;22.80;1.00;;;;;;4993738;28;20419;-73
2023/05/04 11:11:08;;;;;;;643.00;601.17;;;23.10;1.00;;;;;;4993676;28;20543;-73
2023/05/04 11:13:39;;;;;;;757.77;702.20;;;23.20;1.00;;;;;;4993589;28;20438;-74
2023/05/04 11:16:05;;;;;;;685.33;640.20;;;23.20;1.00;;;;;;4993391;28;20471;-73
2023/05/04 11:18:34;;;;;;;809.50;740.83;;;23.20;1.00;;;;;;4993392;28;20471;-73
2023/05/04 11:21:00;;;;;;;663.87;622.23;;;23.20;1.00;;;;;;4993289;28;20164;-73
2023/05/04 11:23:27;;;;;;;707.90;659.63;;;23.20;1.00;;;;;;4993169;28;20420;-73
2023/05/04 11:25:53;;;;;;;692.53;648.63;;;23.20;1.00;;;;;;4993336;28;20452;-73
2023/05/04 11:28:19;;;;;;;655.27;614.13;;;23.40;1.00;;;;;;4993731;28;20779;-73
2023/05/04 11:30:46;;;;;;;681.70;636.60;;;23.60;1.00;;;;;;4993276;28;20420;-73
2023/05/04 11:33:16;;;;;;;858.07;779.03;;;23.70;1.00;;;;;;4993075;28;20173;-73
2023/05/04 11:35:43;;;;;;;644.07;600.97;;;23.60;1.00;;;;;;4993083;28;20491;-73
2023/05/04 11:38:09;;;;;;;706.90;658.83;;;23.30;1.00;;;;;;4993385;28;20424;-73
2023/05/04 11:40:36;;;;;;;674.43;630.47;;;23.30;1.00;;;;;;4993333;28;20791;-73
2023/05/04 11:43:03;;;;;;;664.57;622.33;;;23.40;1.00;;;;;;4993228;28;20415;-73
2023/05/04 11:45:33;;;;;;;680.03;635.37;;;23.60;1.00;;;;;;4993302;28;20420;-73
2023/05/04 11:48:00;;;;;;;705.67;656.60;;;23.70;1.00;;;;;;4993189;28;20451;-73
2023/05/04 11:50:27;;;;;;;693.17;644.83;;;23.70;1.00;;;;;;4991645;28;20424;-73
2023/05/04 11:53:12;;;;;;;734.13;681.87;;;23.70;1.00;;;;;;4992673;28;20415;-73
2023/05/04 11:55:38;;;;;;;642.00;600.87;;;23.80;1.00;;;;;;4992769;28;20844;-73
2023/05/04 11:58:06;;;;;;;683.27;638.53;;;23.70;1.00;;;;;;4992807;28;20495;-70
2023/05/04 12:00:42;;;;;;;744.17;691.17;;;23.70;1.00;;;;;;4993234;28;20756;-73
2023/05/04 12:03:15;;;;;;;646.93;603.20;;;23.70;1.00;;;;;;4991271;28;20428;-71
2023/05/04 12:05:51;;;;;;;694.53;645.93;;;23.50;1.00;;;;;;4991143;28;20501;-73
2023/05/04 12:08:29;;;;;;;658.63;612.43;;;23.80;1.00;;;;;;4992583;28;20834;-73
2023/05/04 12:11:20;;;;;;;638.40;586.93;;;23.80;1.00;;;;;;4992858;28;20415;-73
2023/05/04 12:13:47;;;;;;;626.57;586.33;;;24.00;1.00;;;;;;4992303;28;20438;-73
2023/05/04 12:16:22;;;;;;;751.03;694.40;;;24.30;1.00;;;;;;4992664;28;20494;-73
2023/05/04 12:18:48;;;;;;;671.13;627.90;;;24.20;1.00;;;;;;4992679;28;20905;-74